createdAt,value
2023-03-21T00:00:41.897Z,2.27
2023-03-21T00:03:09.900Z,3.03
2023-03-21T00:05:41.841Z,3.30
2023-03-21T00:08:10.511Z,1.70
2023-03-21T00:10:43.023Z,8.67
2023-03-21T00:13:13.986Z,3.57
2023-03-21T00:16:06.156Z,1.40
2023-03-21T00:18:42.010Z,1.23
2023-03-21T00:21:40.593Z,2.57
2023-03-21T00:24:03.393Z,1.23
2023-03-21T00:26:31.757Z,6.20
2023-03-21T00:29:01.171Z,2.37
2023-03-21T00:31:29.274Z,2.13
2023-03-21T00:33:57.818Z,2.10
2023-03-21T00:36:26.745Z,2.53
2023-03-21T00:38:55.592Z,3.13
2023-03-21T00:41:41.047Z,6.13
2023-03-21T00:44:13.571Z,4.80
2023-03-21T00:46:51.557Z,6.23
2023-03-21T00:49:25.920Z,6.47
2023-03-21T00:51:55.202Z,3.50
2023-03-21T00:54:25.980Z,6.40
2023-03-21T00:56:54.368Z,15.43
2023-03-21T00:59:23.711Z,8.13
2023-03-21T01:01:53.602Z,3.50
2023-03-21T01:04:26.622Z,2.70
2023-03-21T01:06:55.798Z,1.57
2023-03-21T01:09:25.955Z,3.40
2023-03-21T01:11:54.742Z,3.73
2023-03-21T01:14:24.844Z,3.00
2023-03-21T01:16:53.917Z,4.30
2023-03-21T01:19:37.954Z,6.63
2023-03-21T01:22:09.055Z,8.13
2023-03-21T01:24:40.594Z,7.93
2023-03-21T01:27:14.785Z,5.50
2023-03-21T01:29:44.106Z,2.40
2023-03-21T01:32:12.431Z,1.93
2023-03-21T01:34:40.530Z,1.80
2023-03-21T01:37:09.322Z,6.53
2023-03-21T01:39:37.296Z,2.50
2023-03-21T01:42:05.716Z,2.50
2023-03-21T01:44:33.683Z,3.17
2023-03-21T01:47:11.146Z,7.10
2023-03-21T01:49:45.933Z,4.50
2023-03-21T01:52:33.434Z,6.73
2023-03-21T01:55:05.112Z,3.93
2023-03-21T01:57:47.258Z,4.20
2023-03-21T02:00:22.669Z,2.60
2023-03-21T02:02:58.136Z,5.57
2023-03-21T02:05:37.424Z,5.60
2023-03-21T02:08:05.785Z,4.70
2023-03-21T02:10:34.563Z,3.30
2023-03-21T02:13:09.643Z,3.50
2023-03-21T02:15:39.454Z,2.00
2023-03-21T02:18:18.545Z,1.70
2023-03-21T02:21:17.765Z,5.03
2023-03-21T02:24:23.313Z,1.50
2023-03-21T02:27:04.391Z,1.93
2023-03-21T02:30:14.924Z,6.57
2023-03-21T02:33:24.187Z,3.13
2023-03-21T02:36:19.196Z,3.80
2023-03-21T02:38:56.993Z,2.73
2023-03-21T02:41:40.141Z,3.23
2023-03-21T02:44:17.346Z,1.20
2023-03-21T02:46:59.674Z,4.07
2023-03-21T02:49:40.167Z,2.17
2023-03-21T02:52:17.113Z,4.63
2023-03-21T02:54:53.303Z,1.20
2023-03-21T02:57:24.046Z,4.77
2023-03-21T03:00:02.343Z,6.63
2023-03-21T03:02:33.105Z,17.83
2023-03-21T03:05:02.868Z,2.50
2023-03-21T03:07:45.942Z,2.10
2023-03-21T03:10:48.337Z,6.87
2023-03-21T03:13:36.794Z,3.97
2023-03-21T03:16:18.501Z,5.50
2023-03-21T03:18:54.148Z,6.33
2023-03-21T03:21:28.756Z,1.93
2023-03-21T03:24:01.207Z,2.63
2023-03-21T03:26:36.620Z,10.60
2023-03-21T03:29:08.654Z,2.87
2023-03-21T03:31:41.298Z,6.20
2023-03-21T03:34:14.014Z,3.30
2023-03-21T03:36:47.516Z,7.40
2023-03-21T03:39:16.990Z,8.87
2023-03-21T03:42:10.231Z,1.53
2023-03-21T03:44:42.577Z,3.23
2023-03-21T03:47:26.245Z,6.63
2023-03-21T03:50:04.440Z,7.20
2023-03-21T03:52:42.069Z,5.47
2023-03-21T03:55:18.892Z,5.47
2023-03-21T03:57:48.657Z,5.53
2023-03-21T04:00:18.761Z,8.43
2023-03-21T04:02:47.011Z,5.60
2023-03-21T04:05:15.372Z,4.90
2023-03-21T04:07:43.359Z,4.97
2023-03-21T04:10:12.542Z,4.10
2023-03-21T04:12:40.517Z,2.10
2023-03-21T04:15:11.915Z,2.60
2023-03-21T04:17:40.480Z,8.00
2023-03-21T04:20:13.039Z,4.77
2023-03-21T04:22:44.680Z,3.47
2023-03-21T04:25:18.983Z,2.80
2023-03-21T04:27:52.411Z,4.20
2023-03-21T04:30:21.722Z,1.80
2023-03-21T04:32:56.832Z,1.87
2023-03-21T04:35:25.817Z,10.03
2023-03-21T04:37:53.856Z,13.53
2023-03-21T04:40:21.879Z,2.93
2023-03-21T04:42:50.384Z,2.73
2023-03-21T04:45:18.761Z,2.23
2023-03-21T04:47:48.180Z,5.93
2023-03-21T04:50:16.791Z,2.57
2023-03-21T04:52:44.743Z,3.47
2023-03-21T04:55:12.743Z,3.93
2023-03-21T04:57:40.925Z,1.27
2023-03-21T05:00:11.377Z,3.97
2023-03-21T05:02:39.924Z,1.70
2023-03-21T05:05:12.103Z,1.53
2023-03-21T05:07:40.854Z,1.20
2023-03-21T05:10:12.772Z,9.53
2023-03-21T05:12:41.233Z,5.27
2023-03-21T05:15:10.731Z,1.20
2023-03-21T05:17:38.782Z,3.83
2023-03-21T05:20:11.259Z,2.10
2023-03-21T05:22:41.244Z,4.10
2023-03-21T05:25:11.699Z,8.33
2023-03-21T05:27:45.880Z,1.83
2023-03-21T05:30:17.445Z,1.53
2023-03-21T05:32:45.479Z,2.37
2023-03-21T05:35:14.958Z,1.40
2023-03-21T05:37:42.945Z,10.33
2023-03-21T05:40:12.586Z,1.70
2023-03-21T05:42:40.633Z,7.73
2023-03-21T05:45:09.389Z,1.90
2023-03-21T05:47:37.396Z,3.60
2023-03-21T05:50:06.782Z,4.60
2023-03-21T05:52:36.142Z,8.17
2023-03-21T05:55:04.896Z,3.57
2023-03-21T05:57:35.078Z,5.43
2023-03-21T06:00:03.651Z,3.40
2023-03-21T06:02:31.652Z,2.07
2023-03-21T06:04:59.648Z,6.17
2023-03-21T06:07:27.619Z,3.40
2023-03-21T06:09:57.004Z,3.00
2023-03-21T06:12:25.179Z,4.77
2023-03-21T06:14:53.188Z,2.30
2023-03-21T06:17:21.181Z,9.07
2023-03-21T06:19:49.193Z,4.80
2023-03-21T06:22:17.167Z,2.60
2023-03-21T06:24:45.332Z,1.90
2023-03-21T06:27:14.807Z,4.70
2023-03-21T06:29:42.843Z,1.47
2023-03-21T06:32:10.829Z,3.93
2023-03-21T06:34:39.529Z,1.70
2023-03-21T06:37:08.555Z,9.20
2023-03-21T06:39:36.685Z,8.43
2023-03-21T06:42:04.901Z,7.67
2023-03-21T06:44:34.264Z,4.47
2023-03-21T06:47:02.477Z,10.13
2023-03-21T06:49:30.874Z,8.57
2023-03-21T06:51:58.998Z,5.30
2023-03-21T06:54:27.092Z,12.40
2023-03-21T06:56:55.820Z,10.33
2023-03-21T06:59:23.888Z,7.57
2023-03-21T07:01:53.296Z,10.37
2023-03-21T07:04:21.301Z,6.00
2023-03-21T07:06:49.280Z,7.97
2023-03-21T07:09:24.351Z,12.47
2023-03-21T07:11:53.914Z,11.43
2023-03-21T07:14:23.810Z,5.77
2023-03-21T07:16:53.149Z,8.50
2023-03-21T07:19:21.144Z,6.00
2023-03-21T07:21:49.128Z,6.40
2023-03-21T07:24:17.196Z,5.13
2023-03-21T07:26:45.258Z,7.13
2023-03-21T07:29:13.282Z,8.33
2023-03-21T07:31:41.564Z,5.77
2023-03-21T07:34:10.981Z,9.73
2023-03-21T07:36:39.009Z,5.13
2023-03-21T07:39:07.520Z,2.67
2023-03-21T07:41:35.681Z,5.43
2023-03-21T07:44:03.724Z,10.13
2023-03-21T07:46:32.073Z,4.27
2023-03-21T07:49:00.387Z,3.27
2023-03-21T07:51:29.734Z,5.40
2023-03-21T07:53:57.734Z,9.73
2023-03-21T07:56:25.705Z,3.63
2023-03-21T07:58:53.659Z,5.27
2023-03-21T08:01:22.131Z,9.03
2023-03-21T08:03:51.308Z,12.20
2023-03-21T08:06:19.329Z,8.63
2023-03-21T08:08:48.703Z,11.50
2023-03-21T08:11:18.027Z,8.13
2023-03-21T08:13:46.012Z,7.87
2023-03-21T08:16:14.142Z,9.13
2023-03-21T08:18:42.695Z,4.30
2023-03-21T08:21:11.202Z,13.50
2023-03-21T08:23:39.232Z,11.27
2023-03-21T08:26:09.249Z,14.10
2023-03-21T08:28:39.295Z,3.70
2023-03-21T08:31:10.154Z,7.07
2023-03-21T08:33:38.440Z,8.97
2023-03-21T08:36:11.087Z,6.10
2023-03-21T08:38:39.495Z,7.03
2023-03-21T08:41:09.035Z,12.53
2023-03-21T08:43:36.989Z,10.27
2023-03-21T08:46:05.294Z,7.20
2023-03-21T08:48:33.410Z,6.40
2023-03-21T08:51:01.641Z,13.67
2023-03-21T08:53:29.728Z,10.77
2023-03-21T08:55:57.751Z,6.87
2023-03-21T08:58:27.650Z,9.60
2023-03-21T09:00:56.392Z,5.97
2023-03-21T09:03:24.586Z,11.80
2023-03-21T09:05:54.969Z,7.60
2023-03-21T09:08:23.471Z,9.80
2023-03-21T09:10:54.537Z,7.40
2023-03-21T09:13:22.720Z,4.60
2023-03-21T09:15:53.017Z,9.93
2023-03-21T09:18:23.037Z,9.07
2023-03-21T09:20:51.809Z,12.60
2023-03-21T09:23:19.856Z,4.40
2023-03-21T09:25:47.876Z,11.70
2023-03-21T09:28:16.482Z,4.97
2023-03-21T09:30:44.614Z,5.23
2023-03-21T09:33:21.080Z,8.87
2023-03-21T09:35:51.727Z,14.03
2023-03-21T09:38:20.704Z,18.90
2023-03-21T09:41:07.123Z,4.93
2023-03-21T09:43:50.131Z,7.50
2023-03-21T09:46:26.522Z,7.67
2023-03-21T09:49:00.133Z,7.67
2023-03-21T09:51:33.569Z,16.13
2023-03-21T09:54:08.742Z,12.13
2023-03-21T09:56:40.617Z,8.20
2023-03-21T09:59:10.065Z,7.30
2023-03-21T10:01:45.500Z,9.83
2023-03-21T10:04:18.862Z,17.23
2023-03-21T10:06:56.975Z,7.00
2023-03-21T10:09:27.151Z,8.20
2023-03-21T10:12:00.151Z,4.97
2023-03-21T10:14:32.929Z,8.67
2023-03-21T10:17:07.235Z,11.20
2023-03-21T10:19:36.702Z,10.73
2023-03-21T10:22:04.762Z,9.37
2023-03-21T10:24:35.483Z,8.10
2023-03-21T10:27:05.436Z,7.53
2023-03-21T10:29:43.257Z,8.30
2023-03-21T10:32:13.035Z,17.83
2023-03-21T10:34:47.424Z,14.20
2023-03-21T10:37:16.793Z,6.70
2023-03-21T10:39:48.211Z,13.00
2023-03-21T10:42:22.200Z,6.97
2023-03-21T10:44:52.489Z,7.07
2023-03-21T10:47:26.697Z,5.70
2023-03-21T10:50:07.178Z,13.47
2023-03-21T10:52:38.736Z,14.20
2023-03-21T10:55:18.566Z,8.33
2023-03-21T10:57:47.998Z,6.97
2023-03-21T11:00:23.069Z,15.03
2023-03-21T11:02:53.140Z,6.10
2023-03-21T11:05:26.829Z,8.77
2023-03-21T11:08:04.753Z,6.30
2023-03-21T11:10:38.156Z,5.43
2023-03-21T11:13:14.792Z,8.23
2023-03-21T11:15:56.634Z,7.00
2023-03-21T11:18:27.374Z,13.30
2023-03-21T11:20:59.609Z,13.10
2023-03-21T11:23:31.537Z,13.07
2023-03-21T11:26:01.892Z,21.33
2023-03-21T11:28:38.894Z,8.57
2023-03-21T11:31:09.362Z,7.53
2023-03-21T11:33:41.140Z,8.20
2023-03-21T11:36:33.731Z,10.40
2023-03-21T11:39:20.128Z,10.90
2023-03-21T11:41:52.583Z,5.30
2023-03-21T11:44:30.930Z,5.10
2023-03-21T11:46:59.413Z,9.50
2023-03-21T11:49:28.641Z,9.80
2023-03-21T11:52:21.628Z,8.10
2023-03-21T11:55:22.011Z,10.00
2023-03-21T11:58:13.926Z,15.03
2023-03-21T12:00:49.851Z,9.10
2023-03-21T12:03:49.397Z,4.57
2023-03-21T12:06:27.625Z,11.37
2023-03-21T12:09:16.581Z,8.60
2023-03-21T12:12:03.244Z,3.70
2023-03-21T12:14:41.467Z,8.10
2023-03-21T12:17:25.856Z,10.90
2023-03-21T12:20:11.066Z,5.80
2023-03-21T12:22:55.124Z,10.03
2023-03-21T12:25:31.483Z,5.23
2023-03-21T12:28:13.871Z,17.87
2023-03-21T12:30:54.410Z,9.17
2023-03-21T12:33:56.256Z,8.47
2023-03-21T12:36:45.488Z,8.93
2023-03-21T12:39:29.505Z,5.20
2023-03-21T12:42:29.219Z,9.80
2023-03-21T12:45:11.575Z,4.37
2023-03-21T12:47:46.711Z,11.33
2023-03-21T12:50:20.114Z,8.17
2023-03-21T12:52:54.075Z,5.80
2023-03-21T12:55:25.617Z,10.20
2023-03-21T12:58:03.731Z,8.30
2023-03-21T13:00:39.510Z,10.70
2023-03-21T13:03:18.219Z,11.50
2023-03-21T13:05:51.565Z,18.63
2023-03-21T13:08:26.272Z,5.80
2023-03-21T13:10:55.957Z,8.60
2023-03-21T13:13:32.929Z,11.03
2023-03-21T13:16:14.058Z,11.83
2023-03-21T13:19:00.346Z,8.87
2023-03-21T13:21:46.068Z,8.83
2023-03-21T13:24:33.983Z,10.33
2023-03-21T13:27:07.412Z,8.20
2023-03-21T13:29:47.449Z,6.80
2023-03-21T13:32:30.678Z,7.90
2023-03-21T13:35:01.981Z,10.30
2023-03-21T13:37:34.091Z,12.70
2023-03-21T13:40:10.565Z,7.93
2023-03-21T13:42:46.108Z,11.80
2023-03-21T13:45:30.116Z,10.40
2023-03-21T13:47:59.903Z,7.20
2023-03-21T13:50:37.504Z,11.83
2023-03-21T13:53:23.971Z,8.40
2023-03-21T13:56:25.615Z,6.77
2023-03-21T13:59:04.823Z,11.77
2023-03-21T14:01:41.622Z,10.80
2023-03-21T14:04:18.764Z,14.97
2023-03-21T14:06:55.197Z,8.83
2023-03-21T14:09:30.069Z,7.83
2023-03-21T14:12:03.820Z,9.80
2023-03-21T14:14:40.043Z,9.40
2023-03-21T14:17:15.382Z,19.47
2023-03-21T14:19:43.598Z,11.40
2023-03-21T14:22:14.502Z,9.47
2023-03-21T14:24:50.703Z,12.23
2023-03-21T14:27:21.374Z,14.03
2023-03-21T14:29:51.348Z,15.37
2023-03-21T14:32:25.323Z,14.10
2023-03-21T14:34:54.041Z,16.63
2023-03-21T14:37:32.326Z,8.03
2023-03-21T14:40:03.136Z,17.47
2023-03-21T14:42:36.277Z,6.27
2023-03-21T14:45:19.576Z,8.23
2023-03-21T14:48:02.225Z,14.33
2023-03-21T14:50:38.526Z,11.57
2023-03-21T14:53:13.009Z,12.07
2023-03-21T14:55:45.504Z,11.73
2023-03-21T14:58:15.242Z,11.63
2023-03-21T15:00:43.535Z,8.13
2023-03-21T15:03:16.124Z,12.60
2023-03-21T15:05:44.193Z,16.00
2023-03-21T15:08:16.791Z,19.63
2023-03-21T15:11:06.198Z,11.07
2023-03-21T15:13:38.987Z,14.33
2023-03-21T15:16:08.786Z,17.40
2023-03-21T15:18:41.389Z,9.43
2023-03-21T15:21:13.228Z,18.30
2023-03-21T15:23:45.196Z,13.80
2023-03-21T15:26:17.532Z,14.50
2023-03-21T15:28:47.320Z,10.13
2023-03-21T15:31:19.814Z,14.40
2023-03-21T15:33:52.076Z,13.83
2023-03-21T15:36:23.289Z,11.37
2023-03-21T15:38:51.655Z,14.07
2023-03-21T15:41:32.163Z,12.10
2023-03-21T15:44:14.422Z,11.53
2023-03-21T15:46:45.212Z,15.93
2023-03-21T15:49:27.206Z,11.17
2023-03-21T15:52:01.632Z,16.03
2023-03-21T15:54:32.747Z,11.43
2023-03-21T15:57:09.420Z,18.90
2023-03-21T15:59:43.080Z,11.90
2023-03-21T16:02:18.825Z,11.57
2023-03-21T16:05:02.250Z,16.33
2023-03-21T16:07:30.563Z,14.17
2023-03-21T16:10:04.811Z,15.10
2023-03-21T16:12:34.123Z,17.00
2023-03-21T16:15:02.152Z,12.83
2023-03-21T16:17:37.440Z,14.67
2023-03-21T16:20:20.231Z,12.73
2023-03-21T16:22:48.623Z,16.00
2023-03-21T16:25:17.100Z,19.83
2023-03-21T16:27:45.826Z,13.80
2023-03-21T16:30:16.677Z,13.50
2023-03-21T16:32:44.782Z,16.07
2023-03-21T16:35:14.619Z,12.03
2023-03-21T16:37:42.749Z,15.60
2023-03-21T16:40:28.960Z,12.10
2023-03-21T16:42:56.986Z,17.23
2023-03-21T16:45:25.545Z,13.33
2023-03-21T16:47:53.720Z,12.27
2023-03-21T16:50:29.453Z,13.00
2023-03-21T16:52:59.356Z,13.10
2023-03-21T16:55:27.712Z,12.30
2023-03-21T16:57:57.281Z,13.70
2023-03-21T17:00:29.091Z,11.30
2023-03-21T17:03:01.966Z,16.77
2023-03-21T17:05:31.931Z,16.37
2023-03-21T17:08:02.312Z,19.23
2023-03-21T17:10:32.987Z,11.57
2023-03-21T17:13:00.982Z,14.77
2023-03-21T17:15:29.190Z,17.70
2023-03-21T17:17:57.201Z,24.73
2023-03-21T17:20:29.268Z,19.03
2023-03-21T17:22:58.984Z,13.93
2023-03-21T17:25:28.324Z,13.77
2023-03-21T17:27:56.579Z,20.50
2023-03-21T17:30:26.882Z,19.20
2023-03-21T17:32:56.075Z,12.70
2023-03-21T17:35:25.494Z,15.33
2023-03-21T17:37:58.237Z,11.30
2023-03-21T17:40:30.343Z,18.73
2023-03-21T17:43:01.224Z,16.83
2023-03-21T17:45:29.658Z,13.40
2023-03-21T17:47:57.669Z,12.40
2023-03-21T17:50:27.813Z,25.60
2023-03-21T17:52:57.283Z,19.73
2023-03-21T17:55:27.041Z,24.90
2023-03-21T17:57:55.109Z,17.93
2023-03-21T18:00:27.020Z,17.00
2023-03-21T18:02:56.208Z,16.50
2023-03-21T18:05:26.454Z,21.03
2023-03-21T18:08:10.149Z,62.13
2023-03-21T18:10:42.461Z,41.30
2023-03-21T18:13:10.910Z,36.60
2023-03-21T18:15:44.112Z,21.80
2023-03-21T18:18:15.990Z,22.43
2023-03-21T18:20:54.003Z,15.63
2023-03-21T18:23:23.031Z,22.50
2023-03-21T18:25:53.451Z,26.93
2023-03-21T18:28:21.850Z,26.63
2023-03-21T18:31:07.846Z,23.13
2023-03-21T18:33:40.136Z,32.00
2023-03-21T18:36:09.660Z,16.23
2023-03-21T18:38:38.708Z,20.67
2023-03-21T18:41:09.746Z,22.03
2023-03-21T18:44:02.764Z,20.03
2023-03-21T18:46:27.194Z,22.80
2023-03-21T18:48:55.630Z,29.73
2023-03-21T18:51:24.073Z,24.17
2023-03-21T18:53:52.347Z,27.17
2023-03-21T18:57:27.446Z,24.43
2023-03-21T18:59:10.009Z,18.67
2023-03-21T19:01:38.701Z,25.77
2023-03-21T19:04:20.958Z,26.83
2023-03-21T19:06:51.204Z,32.33
2023-03-21T19:09:19.269Z,16.60
2023-03-21T19:11:48.664Z,28.63
2023-03-21T19:14:18.870Z,22.00
2023-03-21T19:17:32.708Z,24.47
2023-03-21T19:19:35.796Z,24.03
2023-03-21T19:22:03.860Z,18.07
2023-03-21T19:24:31.934Z,23.50
2023-03-21T19:27:01.372Z,28.87
2023-03-21T19:29:29.432Z,20.87
2023-03-21T19:31:57.503Z,22.27
2023-03-21T19:34:26.535Z,23.60
2023-03-21T19:36:55.011Z,25.67
2023-03-21T19:39:24.012Z,26.03
2023-03-21T19:41:55.481Z,25.13
2023-03-21T19:44:33.350Z,21.80
2023-03-21T19:47:01.366Z,20.40
2023-03-21T19:49:48.850Z,25.07
2023-03-21T19:52:20.411Z,23.67
2023-03-21T19:54:48.546Z,17.10
2023-03-21T19:57:16.903Z,24.90
2023-03-21T19:59:47.402Z,24.90
2023-03-21T20:02:34.388Z,20.13
2023-03-21T20:05:03.499Z,26.40
2023-03-21T20:07:32.701Z,25.07
2023-03-21T20:10:01.124Z,25.47
2023-03-21T20:12:29.302Z,24.33
2023-03-21T20:15:09.554Z,40.47
2023-03-21T20:17:43.895Z,26.60
2023-03-21T20:20:18.378Z,20.40
2023-03-21T20:25:41.157Z,27.57
2023-03-21T20:28:24.623Z,27.33
2023-03-21T20:30:58.415Z,30.17
2023-03-21T20:33:27.026Z,30.07
2023-03-21T20:36:38.669Z,32.13
2023-03-21T20:38:57.026Z,31.77
2023-03-21T20:41:25.030Z,27.27
2023-03-21T20:46:44.037Z,28.43
2023-03-21T20:49:12.507Z,22.53
2023-03-21T20:54:28.582Z,25.63
2023-03-21T20:56:57.364Z,27.87
2023-03-21T20:59:27.938Z,19.47
2023-03-21T21:01:58.315Z,19.83
2023-03-21T21:04:46.973Z,24.93
2023-03-21T21:07:18.585Z,24.57
2023-03-21T21:09:47.160Z,22.13
2023-03-21T21:12:19.020Z,22.07
2023-03-21T21:14:47.778Z,23.87
2023-03-21T21:20:16.285Z,26.20
2023-03-21T21:22:58.638Z,18.50
2023-03-21T21:25:27.631Z,21.63
2023-03-21T21:27:55.894Z,25.33
2023-03-21T21:30:24.075Z,27.60
2023-03-21T21:32:53.890Z,22.17
2023-03-21T21:35:22.377Z,25.17
2023-03-21T21:37:51.126Z,24.00
2023-03-21T21:40:22.870Z,25.23
2023-03-21T21:42:51.194Z,24.77
2023-03-21T21:45:20.059Z,21.13
2023-03-21T21:47:48.240Z,24.40
2023-03-21T21:50:17.751Z,20.97
2023-03-21T21:52:52.411Z,24.67
2023-03-21T21:55:20.629Z,32.17
2023-03-21T21:57:50.272Z,20.80
2023-03-21T22:00:20.534Z,24.80
2023-03-21T22:02:48.619Z,23.87
2023-03-21T22:05:18.991Z,27.77
2023-03-21T22:07:47.870Z,18.17
2023-03-21T22:10:16.483Z,24.07
2023-03-21T22:12:44.470Z,25.37
2023-03-21T22:15:14.127Z,30.43
2023-03-21T22:17:42.725Z,20.90
2023-03-21T22:20:14.425Z,24.00
2023-03-21T22:22:43.984Z,23.23
2023-03-21T22:25:14.918Z,25.43
2023-03-21T22:27:43.405Z,21.97
2023-03-21T22:30:17.256Z,28.43
2023-03-21T22:32:56.493Z,23.90
2023-03-21T22:35:31.152Z,23.73
2023-03-21T22:38:00.730Z,39.93
2023-03-21T22:40:28.783Z,27.23
2023-03-21T22:42:56.839Z,29.30
2023-03-21T22:45:24.841Z,30.73
2023-03-21T22:47:52.819Z,39.73
2023-03-21T22:50:20.831Z,35.83
2023-03-21T22:52:48.839Z,37.80
2023-03-21T22:55:18.448Z,33.33
2023-03-21T22:57:46.441Z,26.40
2023-03-21T23:00:16.150Z,29.20
2023-03-21T23:02:44.133Z,33.17
2023-03-21T23:05:12.653Z,25.67
2023-03-21T23:07:41.086Z,32.50
2023-03-21T23:10:12.049Z,32.60
2023-03-21T23:12:41.618Z,32.97
2023-03-21T23:15:11.428Z,34.80
2023-03-21T23:17:39.539Z,25.20
2023-03-21T23:20:09.757Z,30.63
2023-03-21T23:22:38.151Z,23.47
2023-03-21T23:25:07.862Z,33.60
2023-03-21T23:27:36.855Z,33.43
2023-03-21T23:30:08.255Z,35.87
2023-03-21T23:32:36.316Z,27.73
2023-03-21T23:35:04.492Z,27.87
2023-03-21T23:37:32.478Z,20.60
2023-03-21T23:40:00.438Z,29.10
2023-03-21T23:42:30.483Z,28.63
2023-03-21T23:44:58.528Z,25.33
2023-03-21T23:47:27.919Z,22.97
2023-03-21T23:49:55.904Z,26.80
2023-03-21T23:52:23.917Z,22.87
2023-03-21T23:54:51.961Z,27.80
2023-03-21T23:57:20.192Z,17.90
2023-03-21T23:59:48.129Z,22.53
